Beverly, Kansas
Current Conditions -  °F | °C
As of 7:30 AM on Sunday 23 Nov 2014 (Local Time) from KSLN Reporting Station
Light Rain Light Rain  
Wind Chill: 52°   Ceiling: 2000
Heat Index: 52°   Visibility: 3mi
Dew Point: 50°   Wind: 5mph
Humidity: 93%   Direction: 120°ESE
Pressure: 29.49"   Gusts: NA
Location:  39.01°N, 97.98°W
Report Text: KSLN 231330Z 12004KT 3SM -RA BR SCT009 BKN020 OVC046 11/10 A2949 RMK AO2 P0002 T01110100
Loading
Personal Weather Stations






























Interactive Weather Map New forecast layout! Learn more

10-Day Weather Forecast

Advertisements
Track Severe Weather on mobile